This is the latest recevied weather packets stored in our database for station/object KI2K. If no packets are shown the sender has not sent any weather packets the latest 10 day(s).
| Time | Temp. | Humidity | Pressure | Rain* | Wind** | Luminosity | Snow |
|---|---|---|---|---|---|---|---|
| 1778006333 | 12.22° C | 99% | 1007.3 hPa | 1.78 mm | - | 51 W/m² | - |
| 1778006029 | 11.67° C | 99% | 1007.2 hPa | 3.05 mm | - | 53 W/m² | - |
| 1778005726 | 11.67° C | 99% | 1007.3 hPa | 6.1 mm | - | 68 W/m² | - |
| 1778005423 | 11.67° C | 99% | 1007.4 hPa | 7.87 mm | - | 53 W/m² | - |
| 1778005120 | 11.67° C | 99% | 1007.3 hPa | 3.05 mm | - | 58 W/m² | - |
| 1778004817 | 11.67° C | 99% | 1006.9 hPa | 0 mm | - | 62 W/m² | - |
| 1778004513 | 11.67° C | 99% | 1006.9 hPa | 0 mm | - | 96 W/m² | - |
| 1778004210 | 11.67° C | 99% | 1007 hPa | 1.27 mm | - | 99 W/m² | - |
| 1778003906 | 11.11° C | 98% | 1007 hPa | 3.05 mm | - | 106 W/m² | - |
| 1778003603 | 11.11° C | 98% | 1007.5 hPa | 4.83 mm | - | 101 W/m² | - |
| 1778003299 | 11.67° C | 98% | 1007.5 hPa | 3.05 mm | - | 87 W/m² | - |
| 1778002997 | 11.67° C | 99% | 1007.7 hPa | 4.32 mm | - | 78 W/m² | - |
| 1778002693 | 11.11° C | 98% | 1007.6 hPa | 3.05 mm | - | 72 W/m² | - |
| 1778002389 | 11.11° C | 98% | 1008 hPa | 3.05 mm | - | 64 W/m² | - |
| 1778002087 | 11.11° C | 98% | 1007.9 hPa | 3.05 mm | - | 57 W/m² | - |
| 1778001784 | 11.11° C | 98% | 1008.1 hPa | 3.05 mm | - | 59 W/m² | - |
| 1778001479 | 11.67° C | 98% | 1008 hPa | 3.05 mm | - | 65 W/m² | - |
| 1778001175 | 12.22° C | 99% | 1008.1 hPa | 3.05 mm | - | 72 W/m² | - |
| 1778000872 | 11.67° C | 99% | 1007.8 hPa | 1.78 mm | - | 84 W/m² | - |
| 1778000569 | 11.67° C | 98% | 1008.2 hPa | 1.27 mm | - | 82 W/m² | - |
| 1777999961 | 12.22° C | 98% | 1008.5 hPa | 3.56 mm | - | 42 W/m² | - |
| 1777999656 | 12.22° C | 98% | 1008.7 hPa | 1.78 mm | - | 27 W/m² | - |
| 1777999354 | 12.78° C | 99% | 1008.5 hPa | 0 mm | - | 43 W/m² | - |
| 1777999052 | 12.22° C | 99% | 1008.1 hPa | 0 mm | - | 69 W/m² | - |
| 1777998750 | 12.78° C | 99% | 1008.3 hPa | 0 mm | - | 37 W/m² | - |
* Rain latest hour (hover to see other rain measurements)
** Current wind speed in m/s (hover to see current wind gust speed)